sensor_id;sensor_type;location;lat;lon;timestamp;temperature;humidity
32660;DHT22;19064;47.912;12.308;2023-06-26T00:00:07;16.60;99.90
32660;DHT22;19064;47.912;12.308;2023-06-26T00:02:34;16.70;99.90
32660;DHT22;19064;47.912;12.308;2023-06-26T00:05:01;16.70;99.90
32660;DHT22;19064;47.912;12.308;2023-06-26T00:07:28;16.70;99.90
32660;DHT22;19064;47.912;12.308;2023-06-26T00:09:57;16.60;99.90
32660;DHT22;19064;47.912;12.308;2023-06-26T00:12:24;16.60;99.90
32660;DHT22;19064;47.912;12.308;2023-06-26T00:14:51;16.60;99.90
32660;DHT22;19064;47.912;12.308;2023-06-26T00:17:18;16.50;99.90
32660;DHT22;19064;47.912;12.308;2023-06-26T00:19:45;16.50;99.90
32660;DHT22;19064;47.912;12.308;2023-06-26T00:22:12;16.40;99.90
32660;DHT22;19064;47.912;12.308;2023-06-26T00:24:38;16.40;99.90
32660;DHT22;19064;47.912;12.308;2023-06-26T00:27:07;16.40;99.90
32660;DHT22;19064;47.912;12.308;2023-06-26T00:29:34;16.40;99.90
32660;DHT22;19064;47.912;12.308;2023-06-26T00:32:00;16.30;99.90
32660;DHT22;19064;47.912;12.308;2023-06-26T00:34:27;16.20;99.90
32660;DHT22;19064;47.912;12.308;2023-06-26T00:36:54;16.20;99.90
32660;DHT22;19064;47.912;12.308;2023-06-26T00:39:20;16.20;99.90
32660;DHT22;19064;47.912;12.308;2023-06-26T00:41:47;16.20;99.90
32660;DHT22;19064;47.912;12.308;2023-06-26T00:44:15;16.20;99.90
32660;DHT22;19064;47.912;12.308;2023-06-26T00:46:42;16.30;99.90
32660;DHT22;19064;47.912;12.308;2023-06-26T00:49:09;16.30;99.90
32660;DHT22;19064;47.912;12.308;2023-06-26T00:51:36;16.50;99.90
32660;DHT22;19064;47.912;12.308;2023-06-26T00:54:03;16.60;99.90
32660;DHT22;19064;47.912;12.308;2023-06-26T00:56:31;16.70;99.90
32660;DHT22;19064;47.912;12.308;2023-06-26T00:58:58;16.80;99.90
32660;DHT22;19064;47.912;12.308;2023-06-26T01:01:26;16.70;99.90
32660;DHT22;19064;47.912;12.308;2023-06-26T01:03:53;16.60;99.90
32660;DHT22;19064;47.912;12.308;2023-06-26T01:06:22;16.50;99.90
32660;DHT22;19064;47.912;12.308;2023-06-26T01:08:50;16.40;99.90
32660;DHT22;19064;47.912;12.308;2023-06-26T01:11:18;16.20;99.90
32660;DHT22;19064;47.912;12.308;2023-06-26T01:13:45;16.10;99.90
32660;DHT22;19064;47.912;12.308;2023-06-26T01:16:13;16.00;99.90
32660;DHT22;19064;47.912;12.308;2023-06-26T01:18:42;16.00;99.90
32660;DHT22;19064;47.912;12.308;2023-06-26T01:21:12;15.90;99.90
32660;DHT22;19064;47.912;12.308;2023-06-26T01:23:47;15.80;99.90
32660;DHT22;19064;47.912;12.308;2023-06-26T01:26:19;15.70;99.90
32660;DHT22;19064;47.912;12.308;2023-06-26T01:28:47;15.60;99.90
32660;DHT22;19064;47.912;12.308;2023-06-26T01:31:16;15.50;99.90
32660;DHT22;19064;47.912;12.308;2023-06-26T01:33:43;15.40;99.90
32660;DHT22;19064;47.912;12.308;2023-06-26T01:36:11;15.30;99.90
32660;DHT22;19064;47.912;12.308;2023-06-26T01:38:38;15.30;99.90
32660;DHT22;19064;47.912;12.308;2023-06-26T01:41:05;15.10;99.90
32660;DHT22;19064;47.912;12.308;2023-06-26T01:43:41;15.10;99.90
32660;DHT22;19064;47.912;12.308;2023-06-26T01:46:14;15.10;99.90
32660;DHT22;19064;47.912;12.308;2023-06-26T01:48:54;15.20;99.90
32660;DHT22;19064;47.912;12.308;2023-06-26T01:51:26;15.20;99.90
32660;DHT22;19064;47.912;12.308;2023-06-26T01:53:55;15.20;99.90
32660;DHT22;19064;47.912;12.308;2023-06-26T01:56:24;15.20;99.90
32660;DHT22;19064;47.912;12.308;2023-06-26T01:58:53;15.20;99.90
32660;DHT22;19064;47.912;12.308;2023-06-26T02:01:21;15.20;99.90
32660;DHT22;19064;47.912;12.308;2023-06-26T02:03:48;15.20;99.90
32660;DHT22;19064;47.912;12.308;2023-06-26T02:06:14;15.20;99.90
32660;DHT22;19064;47.912;12.308;2023-06-26T02:08:42;15.20;99.90
32660;DHT22;19064;47.912;12.308;2023-06-26T02:11:08;15.30;99.90
32660;DHT22;19064;47.912;12.308;2023-06-26T02:13:35;15.50;99.90
32660;DHT22;19064;47.912;12.308;2023-06-26T02:16:03;15.50;99.90
32660;DHT22;19064;47.912;12.308;2023-06-26T02:18:30;15.60;99.90
32660;DHT22;19064;47.912;12.308;2023-06-26T02:20:57;15.60;99.90
32660;DHT22;19064;47.912;12.308;2023-06-26T02:23:24;15.70;99.90
32660;DHT22;19064;47.912;12.308;2023-06-26T02:25:50;15.80;99.90
32660;DHT22;19064;47.912;12.308;2023-06-26T02:28:17;15.80;99.90
32660;DHT22;19064;47.912;12.308;2023-06-26T02:30:44;15.90;99.90
32660;DHT22;19064;47.912;12.308;2023-06-26T02:33:12;15.80;99.90
32660;DHT22;19064;47.912;12.308;2023-06-26T02:35:39;15.60;99.90
32660;DHT22;19064;47.912;12.308;2023-06-26T02:38:06;15.50;99.90
32660;DHT22;19064;47.912;12.308;2023-06-26T02:40:32;15.50;99.90
32660;DHT22;19064;47.912;12.308;2023-06-26T02:42:59;15.60;99.90
32660;DHT22;19064;47.912;12.308;2023-06-26T02:45:26;15.60;99.90
32660;DHT22;19064;47.912;12.308;2023-06-26T02:47:52;15.60;99.90
32660;DHT22;19064;47.912;12.308;2023-06-26T02:50:20;15.50;99.90
32660;DHT22;19064;47.912;12.308;2023-06-26T02:52:47;15.40;99.90
32660;DHT22;19064;47.912;12.308;2023-06-26T02:55:17;15.30;99.90
32660;DHT22;19064;47.912;12.308;2023-06-26T02:57:44;15.20;99.90
32660;DHT22;19064;47.912;12.308;2023-06-26T03:00:12;15.20;99.90
32660;DHT22;19064;47.912;12.308;2023-06-26T03:02:39;15.10;99.90
32660;DHT22;19064;47.912;12.308;2023-06-26T03:05:06;15.10;99.90
32660;DHT22;19064;47.912;12.308;2023-06-26T03:07:35;15.00;99.90
32660;DHT22;19064;47.912;12.308;2023-06-26T03:10:01;15.00;99.90
32660;DHT22;19064;47.912;12.308;2023-06-26T03:12:28;14.80;99.90
32660;DHT22;19064;47.912;12.308;2023-06-26T03:14:55;14.80;99.90
32660;DHT22;19064;47.912;12.308;2023-06-26T03:17:22;14.80;99.90
32660;DHT22;19064;47.912;12.308;2023-06-26T03:19:48;14.80;99.90
32660;DHT22;19064;47.912;12.308;2023-06-26T03:22:15;14.90;99.90
32660;DHT22;19064;47.912;12.308;2023-06-26T03:24:44;14.90;99.90
32660;DHT22;19064;47.912;12.308;2023-06-26T03:27:10;14.80;99.90
32660;DHT22;19064;47.912;12.308;2023-06-26T03:29:37;14.80;99.90
32660;DHT22;19064;47.912;12.308;2023-06-26T03:32:04;14.80;99.90
32660;DHT22;19064;47.912;12.308;2023-06-26T03:34:31;14.80;99.90
32660;DHT22;19064;47.912;12.308;2023-06-26T03:36:58;14.80;99.90
32660;DHT22;19064;47.912;12.308;2023-06-26T03:39:24;14.80;99.90
32660;DHT22;19064;47.912;12.308;2023-06-26T03:41:54;14.80;99.90
32660;DHT22;19064;47.912;12.308;2023-06-26T03:44:25;14.80;99.90
32660;DHT22;19064;47.912;12.308;2023-06-26T03:46:53;14.80;99.90
32660;DHT22;19064;47.912;12.308;2023-06-26T03:49:21;14.90;99.90
32660;DHT22;19064;47.912;12.308;2023-06-26T03:51:48;15.00;99.90
32660;DHT22;19064;47.912;12.308;2023-06-26T03:54:15;15.20;99.90
32660;DHT22;19064;47.912;12.308;2023-06-26T03:56:41;15.20;99.90
32660;DHT22;19064;47.912;12.308;2023-06-26T03:59:10;15.30;99.90
32660;DHT22;19064;47.912;12.308;2023-06-26T04:01:38;15.60;99.90
32660;DHT22;19064;47.912;12.308;2023-06-26T04:04:05;15.80;99.90
32660;DHT22;19064;47.912;12.308;2023-06-26T04:06:32;15.90;99.90
32660;DHT22;19064;47.912;12.308;2023-06-26T04:09:01;16.00;99.90
32660;DHT22;19064;47.912;12.308;2023-06-26T04:11:29;16.00;99.90
32660;DHT22;19064;47.912;12.308;2023-06-26T04:13:56;16.10;99.90
32660;DHT22;19064;47.912;12.308;2023-06-26T04:16:26;16.20;99.90
32660;DHT22;19064;47.912;12.308;2023-06-26T04:18:52;16.30;99.90
32660;DHT22;19064;47.912;12.308;2023-06-26T04:21:23;16.30;99.90
32660;DHT22;19064;47.912;12.308;2023-06-26T04:23:51;16.50;99.90
32660;DHT22;19064;47.912;12.308;2023-06-26T04:26:19;16.60;99.90
32660;DHT22;19064;47.912;12.308;2023-06-26T04:28:47;16.60;99.90
32660;DHT22;19064;47.912;12.308;2023-06-26T04:31:14;16.70;99.90
32660;DHT22;19064;47.912;12.308;2023-06-26T04:33:42;16.70;99.90
32660;DHT22;19064;47.912;12.308;2023-06-26T04:36:09;16.90;99.90
32660;DHT22;19064;47.912;12.308;2023-06-26T04:38:36;17.00;99.90
32660;DHT22;19064;47.912;12.308;2023-06-26T04:41:03;17.10;99.90
32660;DHT22;19064;47.912;12.308;2023-06-26T04:43:30;17.20;99.90
32660;DHT22;19064;47.912;12.308;2023-06-26T04:45:57;17.30;99.90
32660;DHT22;19064;47.912;12.308;2023-06-26T04:48:23;17.40;99.90
32660;DHT22;19064;47.912;12.308;2023-06-26T04:50:54;17.50;99.90
32660;DHT22;19064;47.912;12.308;2023-06-26T04:53:21;17.50;99.90
32660;DHT22;19064;47.912;12.308;2023-06-26T04:55:51;17.60;99.90
32660;DHT22;19064;47.912;12.308;2023-06-26T04:58:20;17.70;99.90
32660;DHT22;19064;47.912;12.308;2023-06-26T05:00:54;17.80;99.90
32660;DHT22;19064;47.912;12.308;2023-06-26T05:03:21;17.90;99.90
32660;DHT22;19064;47.912;12.308;2023-06-26T05:05:50;18.00;99.90
32660;DHT22;19064;47.912;12.308;2023-06-26T05:08:27;18.10;99.90
32660;DHT22;19064;47.912;12.308;2023-06-26T05:10:53;18.20;99.90
32660;DHT22;19064;47.912;12.308;2023-06-26T05:13:23;18.20;99.90
32660;DHT22;19064;47.912;12.308;2023-06-26T05:15:51;18.20;99.90
32660;DHT22;19064;47.912;12.308;2023-06-26T05:18:18;18.30;99.90
32660;DHT22;19064;47.912;12.308;2023-06-26T05:20:46;18.40;99.90
32660;DHT22;19064;47.912;12.308;2023-06-26T05:23:13;18.50;99.90
32660;DHT22;19064;47.912;12.308;2023-06-26T05:25:44;18.70;99.90
32660;DHT22;19064;47.912;12.308;2023-06-26T05:28:11;18.70;99.90
32660;DHT22;19064;47.912;12.308;2023-06-26T05:30:41;18.70;99.90
32660;DHT22;19064;47.912;12.308;2023-06-26T05:33:09;18.80;99.90
32660;DHT22;19064;47.912;12.308;2023-06-26T05:35:37;18.80;99.90
32660;DHT22;19064;47.912;12.308;2023-06-26T05:38:05;18.80;99.90
32660;DHT22;19064;47.912;12.308;2023-06-26T05:40:32;18.90;99.90
32660;DHT22;19064;47.912;12.308;2023-06-26T05:43:01;18.90;99.90
32660;DHT22;19064;47.912;12.308;2023-06-26T05:45:28;19.00;99.90
32660;DHT22;19064;47.912;12.308;2023-06-26T05:47:55;19.10;99.90
32660;DHT22;19064;47.912;12.308;2023-06-26T05:50:22;19.10;99.90
32660;DHT22;19064;47.912;12.308;2023-06-26T05:52:50;19.10;99.90
32660;DHT22;19064;47.912;12.308;2023-06-26T05:55:17;19.10;99.90
32660;DHT22;19064;47.912;12.308;2023-06-26T05:57:45;19.20;99.90
32660;DHT22;19064;47.912;12.308;2023-06-26T06:00:14;19.30;99.90
32660;DHT22;19064;47.912;12.308;2023-06-26T06:02:42;19.30;99.90
32660;DHT22;19064;47.912;12.308;2023-06-26T06:05:09;19.40;99.90
32660;DHT22;19064;47.912;12.308;2023-06-26T06:07:36;19.40;99.90
32660;DHT22;19064;47.912;12.308;2023-06-26T06:10:04;19.50;99.90
32660;DHT22;19064;47.912;12.308;2023-06-26T06:12:31;19.60;99.90
32660;DHT22;19064;47.912;12.308;2023-06-26T06:14:57;19.60;99.90
32660;DHT22;19064;47.912;12.308;2023-06-26T06:17:25;19.70;99.90
32660;DHT22;19064;47.912;12.308;2023-06-26T06:19:52;19.70;99.90
32660;DHT22;19064;47.912;12.308;2023-06-26T06:22:19;19.90;99.90
32660;DHT22;19064;47.912;12.308;2023-06-26T06:24:46;20.00;99.90
32660;DHT22;19064;47.912;12.308;2023-06-26T06:27:13;20.10;99.90
32660;DHT22;19064;47.912;12.308;2023-06-26T06:29:40;20.20;99.90
32660;DHT22;19064;47.912;12.308;2023-06-26T06:32:07;20.20;99.90
32660;DHT22;19064;47.912;12.308;2023-06-26T06:34:35;20.30;99.90
32660;DHT22;19064;47.912;12.308;2023-06-26T06:37:02;20.50;99.90
32660;DHT22;19064;47.912;12.308;2023-06-26T06:39:29;20.80;99.90
32660;DHT22;19064;47.912;12.308;2023-06-26T06:41:56;21.00;99.90
32660;DHT22;19064;47.912;12.308;2023-06-26T06:44:22;21.00;99.90
32660;DHT22;19064;47.912;12.308;2023-06-26T06:46:49;21.00;99.90
32660;DHT22;19064;47.912;12.308;2023-06-26T06:49:16;21.10;99.90
32660;DHT22;19064;47.912;12.308;2023-06-26T06:51:44;21.20;99.90
32660;DHT22;19064;47.912;12.308;2023-06-26T06:54:11;21.30;99.90
32660;DHT22;19064;47.912;12.308;2023-06-26T06:56:37;21.40;99.90
32660;DHT22;19064;47.912;12.308;2023-06-26T06:59:04;21.40;99.90
32660;DHT22;19064;47.912;12.308;2023-06-26T07:01:31;21.50;99.90
32660;DHT22;19064;47.912;12.308;2023-06-26T07:03:58;21.70;99.90
32660;DHT22;19064;47.912;12.308;2023-06-26T07:06:25;21.90;99.90
32660;DHT22;19064;47.912;12.308;2023-06-26T07:08:53;22.10;99.90
32660;DHT22;19064;47.912;12.308;2023-06-26T07:11:20;22.30;99.90
32660;DHT22;19064;47.912;12.308;2023-06-26T07:13:46;22.20;99.90
32660;DHT22;19064;47.912;12.308;2023-06-26T07:16:13;22.50;99.90
32660;DHT22;19064;47.912;12.308;2023-06-26T07:18:40;22.70;99.90
32660;DHT22;19064;47.912;12.308;2023-06-26T07:21:07;22.70;99.90
32660;DHT22;19064;47.912;12.308;2023-06-26T07:23:34;22.90;99.90
32660;DHT22;19064;47.912;12.308;2023-06-26T07:26:02;23.00;99.90
32660;DHT22;19064;47.912;12.308;2023-06-26T07:28:28;22.90;99.90
32660;DHT22;19064;47.912;12.308;2023-06-26T07:30:55;23.10;98.10
32660;DHT22;19064;47.912;12.308;2023-06-26T07:33:22;23.30;97.30
32660;DHT22;19064;47.912;12.308;2023-06-26T07:35:49;23.50;97.80
32660;DHT22;19064;47.912;12.308;2023-06-26T07:38:15;23.40;96.90
32660;DHT22;19064;47.912;12.308;2023-06-26T07:40:42;23.40;97.70
32660;DHT22;19064;47.912;12.308;2023-06-26T07:43:10;23.50;97.80
32660;DHT22;19064;47.912;12.308;2023-06-26T07:45:37;23.80;97.30
32660;DHT22;19064;47.912;12.308;2023-06-26T07:48:05;23.90;96.40
32660;DHT22;19064;47.912;12.308;2023-06-26T07:50:32;23.90;96.00
32660;DHT22;19064;47.912;12.308;2023-06-26T07:52:59;23.80;95.60
32660;DHT22;19064;47.912;12.308;2023-06-26T07:55:26;23.80;97.10
32660;DHT22;19064;47.912;12.308;2023-06-26T07:57:53;24.10;96.60
32660;DHT22;19064;47.912;12.308;2023-06-26T08:00:22;24.20;96.50
32660;DHT22;19064;47.912;12.308;2023-06-26T08:02:48;24.20;96.20
32660;DHT22;19064;47.912;12.308;2023-06-26T08:05:15;24.30;96.30
32660;DHT22;19064;47.912;12.308;2023-06-26T08:07:42;24.40;94.40
32660;DHT22;19064;47.912;12.308;2023-06-26T08:10:09;24.40;94.70
32660;DHT22;19064;47.912;12.308;2023-06-26T08:12:36;24.50;93.90
32660;DHT22;19064;47.912;12.308;2023-06-26T08:15:06;24.70;94.50
32660;DHT22;19064;47.912;12.308;2023-06-26T08:17:34;25.00;95.00
32660;DHT22;19064;47.912;12.308;2023-06-26T08:20:01;24.90;94.30
32660;DHT22;19064;47.912;12.308;2023-06-26T08:22:28;25.00;93.10
32660;DHT22;19064;47.912;12.308;2023-06-26T08:24:55;24.80;93.60
32660;DHT22;19064;47.912;12.308;2023-06-26T08:27:22;24.80;93.50
32660;DHT22;19064;47.912;12.308;2023-06-26T08:29:48;24.90;93.80
32660;DHT22;19064;47.912;12.308;2023-06-26T08:32:15;25.10;94.00
32660;DHT22;19064;47.912;12.308;2023-06-26T08:34:43;25.20;93.60
32660;DHT22;19064;47.912;12.308;2023-06-26T08:37:10;25.20;93.70
32660;DHT22;19064;47.912;12.308;2023-06-26T08:39:36;25.30;93.80
32660;DHT22;19064;47.912;12.308;2023-06-26T08:42:04;25.30;93.50
32660;DHT22;19064;47.912;12.308;2023-06-26T08:44:31;25.30;93.50
32660;DHT22;19064;47.912;12.308;2023-06-26T08:46:59;25.30;92.50
32660;DHT22;19064;47.912;12.308;2023-06-26T08:49:29;25.50;92.20
32660;DHT22;19064;47.912;12.308;2023-06-26T08:52:05;25.50;92.90
32660;DHT22;19064;47.912;12.308;2023-06-26T08:54:36;25.70;91.70
32660;DHT22;19064;47.912;12.308;2023-06-26T08:57:06;25.80;91.30
32660;DHT22;19064;47.912;12.308;2023-06-26T08:59:33;25.90;92.10
32660;DHT22;19064;47.912;12.308;2023-06-26T09:02:00;25.80;92.10
32660;DHT22;19064;47.912;12.308;2023-06-26T09:04:28;25.90;91.90
32660;DHT22;19064;47.912;12.308;2023-06-26T09:06:55;26.00;92.00
32660;DHT22;19064;47.912;12.308;2023-06-26T09:09:23;26.30;92.60
32660;DHT22;19064;47.912;12.308;2023-06-26T09:11:49;26.50;92.90
32660;DHT22;19064;47.912;12.308;2023-06-26T09:14:17;26.30;91.50
32660;DHT22;19064;47.912;12.308;2023-06-26T09:16:45;26.40;91.80
32660;DHT22;19064;47.912;12.308;2023-06-26T09:19:12;26.40;91.90
32660;DHT22;19064;47.912;12.308;2023-06-26T09:21:40;26.40;92.10
32660;DHT22;19064;47.912;12.308;2023-06-26T09:24:08;26.50;91.80
32660;DHT22;19064;47.912;12.308;2023-06-26T09:26:38;26.30;91.80
32660;DHT22;19064;47.912;12.308;2023-06-26T09:29:05;26.20;91.80
32660;DHT22;19064;47.912;12.308;2023-06-26T09:31:33;26.20;91.80
32660;DHT22;19064;47.912;12.308;2023-06-26T09:34:00;26.50;91.50
32660;DHT22;19064;47.912;12.308;2023-06-26T09:36:29;26.60;91.10
32660;DHT22;19064;47.912;12.308;2023-06-26T09:38:58;26.60;91.30
32660;DHT22;19064;47.912;12.308;2023-06-26T09:41:26;26.50;92.10
32660;DHT22;19064;47.912;12.308;2023-06-26T09:43:58;26.50;92.00
32660;DHT22;19064;47.912;12.308;2023-06-26T09:46:28;26.40;91.60
32660;DHT22;19064;47.912;12.308;2023-06-26T09:49:00;26.60;92.70
32660;DHT22;19064;47.912;12.308;2023-06-26T09:51:29;26.90;91.50
32660;DHT22;19064;47.912;12.308;2023-06-26T09:53:57;27.00;91.60
32660;DHT22;19064;47.912;12.308;2023-06-26T09:56:24;26.90;92.20
32660;DHT22;19064;47.912;12.308;2023-06-26T09:58:51;27.10;91.10
32660;DHT22;19064;47.912;12.308;2023-06-26T10:01:19;27.30;91.20
32660;DHT22;19064;47.912;12.308;2023-06-26T10:03:46;27.20;91.30
32660;DHT22;19064;47.912;12.308;2023-06-26T10:06:13;27.20;92.30
32660;DHT22;19064;47.912;12.308;2023-06-26T10:08:41;27.30;91.10
32660;DHT22;19064;47.912;12.308;2023-06-26T10:11:11;27.20;92.20
32660;DHT22;19064;47.912;12.308;2023-06-26T10:13:42;27.30;91.50
32660;DHT22;19064;47.912;12.308;2023-06-26T10:16:12;27.30;91.90
32660;DHT22;19064;47.912;12.308;2023-06-26T10:18:41;27.40;92.10
32660;DHT22;19064;47.912;12.308;2023-06-26T10:21:10;27.60;92.20
32660;DHT22;19064;47.912;12.308;2023-06-26T10:23:39;27.70;91.60
32660;DHT22;19064;47.912;12.308;2023-06-26T10:26:08;28.00;91.10
32660;DHT22;19064;47.912;12.308;2023-06-26T10:28:36;28.10;89.10
32660;DHT22;19064;47.912;12.308;2023-06-26T10:31:07;28.00;89.50
32660;DHT22;19064;47.912;12.308;2023-06-26T10:33:35;28.10;90.10
32660;DHT22;19064;47.912;12.308;2023-06-26T10:36:17;28.20;89.00
32660;DHT22;19064;47.912;12.308;2023-06-26T10:38:51;28.20;88.30
32660;DHT22;19064;47.912;12.308;2023-06-26T10:41:20;28.40;88.20
32660;DHT22;19064;47.912;12.308;2023-06-26T10:43:51;28.40;87.60
32660;DHT22;19064;47.912;12.308;2023-06-26T10:46:19;28.50;88.10
32660;DHT22;19064;47.912;12.308;2023-06-26T10:48:56;28.50;88.10
32660;DHT22;19064;47.912;12.308;2023-06-26T10:51:26;28.80;87.70
32660;DHT22;19064;47.912;12.308;2023-06-26T10:53:57;28.90;87.00
32660;DHT22;19064;47.912;12.308;2023-06-26T10:56:43;28.90;86.80
32660;DHT22;19064;47.912;12.308;2023-06-26T10:59:16;29.10;83.00
32660;DHT22;19064;47.912;12.308;2023-06-26T11:01:44;28.90;85.00
32660;DHT22;19064;47.912;12.308;2023-06-26T11:04:12;29.20;86.50
32660;DHT22;19064;47.912;12.308;2023-06-26T11:06:43;28.80;88.00
32660;DHT22;19064;47.912;12.308;2023-06-26T11:09:13;28.70;87.40
32660;DHT22;19064;47.912;12.308;2023-06-26T11:11:56;28.70;86.00
32660;DHT22;19064;47.912;12.308;2023-06-26T11:14:31;28.80;85.80
32660;DHT22;19064;47.912;12.308;2023-06-26T11:17:03;28.80;85.70
32660;DHT22;19064;47.912;12.308;2023-06-26T11:19:30;28.90;83.60
32660;DHT22;19064;47.912;12.308;2023-06-26T11:22:01;28.70;83.80
32660;DHT22;19064;47.912;12.308;2023-06-26T11:24:29;28.90;85.40
32660;DHT22;19064;47.912;12.308;2023-06-26T11:27:00;29.00;83.00
32660;DHT22;19064;47.912;12.308;2023-06-26T11:29:28;29.20;83.20
32660;DHT22;19064;47.912;12.308;2023-06-26T11:32:00;29.40;81.30
32660;DHT22;19064;47.912;12.308;2023-06-26T11:34:30;29.20;81.40
32660;DHT22;19064;47.912;12.308;2023-06-26T11:36:58;29.20;78.20
32660;DHT22;19064;47.912;12.308;2023-06-26T11:39:28;29.30;79.90
32660;DHT22;19064;47.912;12.308;2023-06-26T11:41:56;29.50;77.80
32660;DHT22;19064;47.912;12.308;2023-06-26T11:44:23;29.60;76.80
32660;DHT22;19064;47.912;12.308;2023-06-26T11:46:53;29.80;76.70
32660;DHT22;19064;47.912;12.308;2023-06-26T11:49:21;29.90;76.70
32660;DHT22;19064;47.912;12.308;2023-06-26T11:51:51;30.00;76.90
32660;DHT22;19064;47.912;12.308;2023-06-26T11:54:25;30.00;74.80
32660;DHT22;19064;47.912;12.308;2023-06-26T11:56:53;29.60;75.00
32660;DHT22;19064;47.912;12.308;2023-06-26T11:59:22;29.60;76.90
32660;DHT22;19064;47.912;12.308;2023-06-26T12:01:50;29.60;79.00
32660;DHT22;19064;47.912;12.308;2023-06-26T12:04:17;29.60;77.30
32660;DHT22;19064;47.912;12.308;2023-06-26T12:06:47;29.60;75.00
32660;DHT22;19064;47.912;12.308;2023-06-26T12:09:14;29.70;76.50
32660;DHT22;19064;47.912;12.308;2023-06-26T12:11:44;29.60;77.00
32660;DHT22;19064;47.912;12.308;2023-06-26T12:14:13;29.50;75.20
32660;DHT22;19064;47.912;12.308;2023-06-26T12:16:40;29.60;74.70
32660;DHT22;19064;47.912;12.308;2023-06-26T12:19:08;29.80;75.70
32660;DHT22;19064;47.912;12.308;2023-06-26T12:21:46;29.90;75.10
32660;DHT22;19064;47.912;12.308;2023-06-26T12:24:15;29.70;75.50
32660;DHT22;19064;47.912;12.308;2023-06-26T12:26:44;29.90;73.90
32660;DHT22;19064;47.912;12.308;2023-06-26T12:29:12;30.10;73.90
32660;DHT22;19064;47.912;12.308;2023-06-26T12:31:40;30.00;74.00
32660;DHT22;19064;47.912;12.308;2023-06-26T12:34:11;30.10;74.40
32660;DHT22;19064;47.912;12.308;2023-06-26T12:36:40;30.30;73.80
32660;DHT22;19064;47.912;12.308;2023-06-26T12:39:09;30.20;72.30
32660;DHT22;19064;47.912;12.308;2023-06-26T12:41:46;30.20;72.00
32660;DHT22;19064;47.912;12.308;2023-06-26T12:44:19;30.20;72.60
32660;DHT22;19064;47.912;12.308;2023-06-26T12:46:47;30.10;69.80
32660;DHT22;19064;47.912;12.308;2023-06-26T12:49:15;30.00;71.60
32660;DHT22;19064;47.912;12.308;2023-06-26T12:51:42;30.10;73.90
32660;DHT22;19064;47.912;12.308;2023-06-26T12:54:09;29.90;69.90
32660;DHT22;19064;47.912;12.308;2023-06-26T12:56:36;29.70;70.90
32660;DHT22;19064;47.912;12.308;2023-06-26T12:59:04;29.50;72.40
32660;DHT22;19064;47.912;12.308;2023-06-26T13:01:31;29.30;72.70
32660;DHT22;19064;47.912;12.308;2023-06-26T13:03:58;29.50;72.60
32660;DHT22;19064;47.912;12.308;2023-06-26T13:06:25;29.70;71.80
32660;DHT22;19064;47.912;12.308;2023-06-26T13:08:51;29.90;73.60
32660;DHT22;19064;47.912;12.308;2023-06-26T13:11:19;30.10;72.80
32660;DHT22;19064;47.912;12.308;2023-06-26T13:13:47;30.30;72.80
32660;DHT22;19064;47.912;12.308;2023-06-26T13:16:15;30.40;73.00
32660;DHT22;19064;47.912;12.308;2023-06-26T13:18:42;30.50;71.00
32660;DHT22;19064;47.912;12.308;2023-06-26T13:21:08;30.40;72.50
32660;DHT22;19064;47.912;12.308;2023-06-26T13:23:35;30.40;73.30
32660;DHT22;19064;47.912;12.308;2023-06-26T13:26:04;30.30;72.60
32660;DHT22;19064;47.912;12.308;2023-06-26T13:28:31;30.40;72.10
32660;DHT22;19064;47.912;12.308;2023-06-26T13:30:58;30.70;71.10
32660;DHT22;19064;47.912;12.308;2023-06-26T13:33:26;30.80;70.80
32660;DHT22;19064;47.912;12.308;2023-06-26T13:35:53;30.80;69.20
32660;DHT22;19064;47.912;12.308;2023-06-26T13:38:20;30.50;68.60
32660;DHT22;19064;47.912;12.308;2023-06-26T13:40:50;30.60;69.50
32660;DHT22;19064;47.912;12.308;2023-06-26T13:43:17;30.70;68.70
32660;DHT22;19064;47.912;12.308;2023-06-26T13:45:43;30.80;68.90
32660;DHT22;19064;47.912;12.308;2023-06-26T13:48:10;30.90;68.40
32660;DHT22;19064;47.912;12.308;2023-06-26T13:50:38;31.10;68.80
32660;DHT22;19064;47.912;12.308;2023-06-26T13:53:05;30.70;67.60
32660;DHT22;19064;47.912;12.308;2023-06-26T13:55:33;30.80;69.50
32660;DHT22;19064;47.912;12.308;2023-06-26T13:57:59;31.00;67.50
32660;DHT22;19064;47.912;12.308;2023-06-26T14:00:28;30.80;66.60
32660;DHT22;19064;47.912;12.308;2023-06-26T14:02:55;30.70;68.60
32660;DHT22;19064;47.912;12.308;2023-06-26T14:05:22;30.70;68.70
32660;DHT22;19064;47.912;12.308;2023-06-26T14:07:50;30.40;68.10
32660;DHT22;19064;47.912;12.308;2023-06-26T14:10:17;30.40;66.80
32660;DHT22;19064;47.912;12.308;2023-06-26T14:12:44;30.60;69.60
32660;DHT22;19064;47.912;12.308;2023-06-26T14:15:11;30.50;68.00
32660;DHT22;19064;47.912;12.308;2023-06-26T14:17:37;30.40;67.40
32660;DHT22;19064;47.912;12.308;2023-06-26T14:20:06;30.20;68.00
32660;DHT22;19064;47.912;12.308;2023-06-26T14:22:35;30.30;69.40
32660;DHT22;19064;47.912;12.308;2023-06-26T14:25:04;30.50;70.00
32660;DHT22;19064;47.912;12.308;2023-06-26T14:27:31;30.40;69.00
32660;DHT22;19064;47.912;12.308;2023-06-26T14:29:58;30.30;68.50
32660;DHT22;19064;47.912;12.308;2023-06-26T14:32:27;30.40;67.70
32660;DHT22;19064;47.912;12.308;2023-06-26T14:34:54;30.60;69.30
32660;DHT22;19064;47.912;12.308;2023-06-26T14:37:20;30.80;66.90
32660;DHT22;19064;47.912;12.308;2023-06-26T14:39:48;30.80;67.00
32660;DHT22;19064;47.912;12.308;2023-06-26T14:42:18;30.60;68.50
32660;DHT22;19064;47.912;12.308;2023-06-26T14:44:45;30.70;68.30
32660;DHT22;19064;47.912;12.308;2023-06-26T14:47:12;30.80;70.60
32660;DHT22;19064;47.912;12.308;2023-06-26T14:49:39;30.60;68.00
32660;DHT22;19064;47.912;12.308;2023-06-26T14:52:06;30.30;69.00
32660;DHT22;19064;47.912;12.308;2023-06-26T14:54:34;30.20;69.80
32660;DHT22;19064;47.912;12.308;2023-06-26T14:57:03;30.00;69.60
32660;DHT22;19064;47.912;12.308;2023-06-26T14:59:34;29.90;68.80
32660;DHT22;19064;47.912;12.308;2023-06-26T15:02:03;29.90;69.00
32660;DHT22;19064;47.912;12.308;2023-06-26T15:04:32;29.80;70.00
32660;DHT22;19064;47.912;12.308;2023-06-26T15:06:59;29.80;70.60
32660;DHT22;19064;47.912;12.308;2023-06-26T15:09:25;29.90;69.90
32660;DHT22;19064;47.912;12.308;2023-06-26T15:11:52;29.80;69.70
32660;DHT22;19064;47.912;12.308;2023-06-26T15:14:19;29.70;69.90
32660;DHT22;19064;47.912;12.308;2023-06-26T15:16:51;29.60;69.70
32660;DHT22;19064;47.912;12.308;2023-06-26T15:19:20;29.50;70.90